createdAt,value
2019-03-21T00:00:33.199Z,6.07
2019-03-21T00:03:04.867Z,6.03
2019-03-21T00:05:37.177Z,5.93
2019-03-21T00:08:10.124Z,6.87
2019-03-21T00:11:27.725Z,6.20
2019-03-21T00:14:06.886Z,6.50
2019-03-21T00:16:34.563Z,6.93
2019-03-21T00:19:05.733Z,7.30
2019-03-21T00:21:36.836Z,7.80
2019-03-21T00:24:07.970Z,6.87
2019-03-21T00:26:39.086Z,5.33
2019-03-21T00:29:10.180Z,5.17
2019-03-21T00:31:41.336Z,4.67
2019-03-21T00:34:12.441Z,4.60
2019-03-21T00:36:43.571Z,4.50
2019-03-21T00:39:14.747Z,4.50
2019-03-21T00:41:45.870Z,5.17
2019-03-21T00:44:18.495Z,4.77
2019-03-21T00:46:49.784Z,4.40
2019-03-21T00:49:20.959Z,5.37
2019-03-21T00:51:52.056Z,4.20
2019-03-21T00:54:23.164Z,4.20
2019-03-21T00:56:54.316Z,4.60
2019-03-21T00:59:25.488Z,3.60
2019-03-21T01:01:56.608Z,3.60
2019-03-21T01:04:30.247Z,3.90
2019-03-21T01:07:01.288Z,3.37
2019-03-21T01:09:32.420Z,3.77
2019-03-21T01:12:03.507Z,3.67
2019-03-21T01:14:34.720Z,3.17
2019-03-21T01:17:05.848Z,3.30
2019-03-21T01:22:20.852Z,3.40
2019-03-21T01:24:52.002Z,2.90
2019-03-21T01:27:23.122Z,3.23
2019-03-21T01:29:54.259Z,3.50
2019-03-21T01:32:25.428Z,3.50
2019-03-21T01:34:56.621Z,3.50
2019-03-21T01:37:27.880Z,3.00
2019-03-21T01:39:58.972Z,3.23
2019-03-21T01:42:30.172Z,3.47
2019-03-21T01:45:01.316Z,3.63
2019-03-21T01:47:32.479Z,3.87
2019-03-21T01:50:04.927Z,3.50
2019-03-21T01:52:36.033Z,3.67
2019-03-21T01:55:07.795Z,3.43
2019-03-21T01:57:38.913Z,3.93
2019-03-21T02:00:13.394Z,4.43
2019-03-21T02:02:44.690Z,3.97
2019-03-21T02:05:15.812Z,4.50
2019-03-21T02:07:46.967Z,3.93
2019-03-21T02:10:18.326Z,4.10
2019-03-21T02:12:49.512Z,4.17
2019-03-21T02:15:20.653Z,3.80
2019-03-21T02:17:51.853Z,3.70
2019-03-21T02:20:23.115Z,3.77
2019-03-21T02:22:54.341Z,2.73
2019-03-21T02:25:28.139Z,3.60
2019-03-21T02:27:59.511Z,3.10
2019-03-21T02:30:32.558Z,2.40
2019-03-21T02:33:07.074Z,1.93
2019-03-21T02:35:38.144Z,1.73
2019-03-21T02:38:09.242Z,2.13
2019-03-21T02:40:40.385Z,1.30
2019-03-21T02:43:11.518Z,1.30
2019-03-21T02:45:43.734Z,1.13
2019-03-21T02:48:14.901Z,0.97
2019-03-21T02:50:46.094Z,0.90
2019-03-21T02:53:17.228Z,1.10
2019-03-21T02:55:48.418Z,1.10
2019-03-21T02:58:19.549Z,0.83
2019-03-21T03:00:50.674Z,1.33
2019-03-21T03:03:21.880Z,1.00
2019-03-21T03:05:52.970Z,1.13
2019-03-21T03:08:24.071Z,1.13
2019-03-21T03:10:55.607Z,1.73
2019-03-21T03:13:27.641Z,1.50
2019-03-21T03:15:58.831Z,1.80
2019-03-21T03:18:29.979Z,1.70
2019-03-21T03:21:01.126Z,1.97
2019-03-21T03:23:32.216Z,2.37
2019-03-21T03:26:03.348Z,2.97
2019-03-21T03:28:34.438Z,2.83
2019-03-21T03:31:05.604Z,3.87
2019-03-21T03:36:12.210Z,4.60
2019-03-21T03:38:43.308Z,4.90
2019-03-21T03:41:14.503Z,4.63
2019-03-21T03:43:45.743Z,4.17
2019-03-21T03:46:16.801Z,4.70
2019-03-21T03:48:47.922Z,4.83
2019-03-21T03:51:19.008Z,5.23
2019-03-21T03:53:50.138Z,4.40
2019-03-21T03:56:21.298Z,5.03
2019-03-21T03:58:53.063Z,4.43
2019-03-21T04:01:24.157Z,4.10
2019-03-21T04:03:55.394Z,4.30
2019-03-21T04:06:26.468Z,4.67
2019-03-21T04:08:57.617Z,4.67
2019-03-21T04:11:29.840Z,4.60
2019-03-21T04:14:00.891Z,4.60
2019-03-21T04:16:32.014Z,3.93
2019-03-21T04:19:03.080Z,4.70
2019-03-21T04:21:34.185Z,4.43
2019-03-21T04:24:05.468Z,4.33
2019-03-21T04:26:36.584Z,5.00
2019-03-21T04:29:07.715Z,5.20
2019-03-21T04:31:38.760Z,5.53
2019-03-21T04:34:10.294Z,6.50
2019-03-21T04:36:41.349Z,7.37
2019-03-21T04:39:12.446Z,7.30
2019-03-21T04:41:44.140Z,7.07
2019-03-21T04:44:15.473Z,7.83
2019-03-21T04:46:46.561Z,8.20
2019-03-21T04:49:17.639Z,7.97
2019-03-21T04:51:48.759Z,8.40
2019-03-21T04:54:19.826Z,7.63
2019-03-21T04:56:51.019Z,8.43
2019-03-21T04:59:22.091Z,8.37
2019-03-21T05:01:53.255Z,7.63
2019-03-21T05:04:24.416Z,9.63
2019-03-21T05:06:55.529Z,8.93
2019-03-21T05:09:26.652Z,8.30
2019-03-21T05:11:57.652Z,8.90
2019-03-21T05:14:28.772Z,7.63
2019-03-21T05:19:48.595Z,5.77
2019-03-21T05:22:20.661Z,5.10
2019-03-21T05:24:51.790Z,5.17
2019-03-21T05:27:22.870Z,4.43
2019-03-21T05:29:53.984Z,6.47
2019-03-21T05:32:25.095Z,7.97
2019-03-21T05:34:56.197Z,9.70
2019-03-21T05:37:27.307Z,10.03
2019-03-21T05:39:58.438Z,10.43
2019-03-21T05:42:29.526Z,10.63
2019-03-21T05:45:00.678Z,9.73
2019-03-21T05:47:31.780Z,9.27
2019-03-21T05:50:02.955Z,9.87
2019-03-21T05:52:34.058Z,9.50
2019-03-21T05:55:05.376Z,9.03
2019-03-21T05:57:36.469Z,7.83
2019-03-21T06:00:12.009Z,8.90
2019-03-21T06:02:43.193Z,8.03
2019-03-21T06:08:03.827Z,8.33
2019-03-21T06:10:35.030Z,6.87
2019-03-21T06:13:06.295Z,7.57
2019-03-21T06:15:38.493Z,6.83
2019-03-21T06:18:32.577Z,6.97
2019-03-21T06:21:39.142Z,6.60
2019-03-21T06:24:20.564Z,6.03
2019-03-21T06:27:14.437Z,6.73
2019-03-21T06:29:41.385Z,6.00
2019-03-21T06:32:13.104Z,6.07
2019-03-21T06:34:44.340Z,6.70
2019-03-21T06:37:15.471Z,5.90
2019-03-21T06:39:46.548Z,5.37
2019-03-21T06:42:17.603Z,5.77
2019-03-21T06:44:48.675Z,6.57
2019-03-21T06:47:19.799Z,6.07
2019-03-21T06:49:50.936Z,5.50
2019-03-21T06:52:22.043Z,5.30
2019-03-21T06:54:53.185Z,6.07
2019-03-21T06:57:24.235Z,6.30
2019-03-21T06:59:55.374Z,6.43
2019-03-21T07:02:26.393Z,5.60
2019-03-21T07:04:57.543Z,5.90
2019-03-21T07:07:28.644Z,5.23
2019-03-21T07:09:59.793Z,5.67
2019-03-21T07:12:30.901Z,6.87
2019-03-21T07:15:04.378Z,6.63
2019-03-21T07:17:34.715Z,6.30
2019-03-21T07:20:06.436Z,5.80
2019-03-21T07:22:38.503Z,6.23
2019-03-21T07:25:10.104Z,6.60
2019-03-21T07:27:41.247Z,5.73
2019-03-21T07:30:13.393Z,5.77
2019-03-21T07:32:44.525Z,6.03
2019-03-21T07:35:15.744Z,5.23
2019-03-21T07:37:47.851Z,5.70
2019-03-21T07:40:18.897Z,5.63
2019-03-21T07:42:49.993Z,5.23
2019-03-21T07:45:21.063Z,5.17
2019-03-21T07:47:52.176Z,5.17
2019-03-21T07:50:23.276Z,4.57
2019-03-21T07:52:54.394Z,4.83
2019-03-21T07:55:25.507Z,4.63
2019-03-21T07:57:59.187Z,4.20
2019-03-21T08:00:29.301Z,3.90
2019-03-21T08:03:00.395Z,4.20
2019-03-21T08:05:39.816Z,4.50
2019-03-21T08:08:04.217Z,3.20
2019-03-21T08:10:35.304Z,2.87
2019-03-21T08:13:06.407Z,2.43
2019-03-21T08:15:38.008Z,2.50
2019-03-21T08:18:11.201Z,2.40
2019-03-21T08:20:42.303Z,2.17
2019-03-21T08:23:13.396Z,1.50
2019-03-21T08:25:44.528Z,1.57
2019-03-21T08:28:15.769Z,1.80
2019-03-21T08:31:21.341Z,1.33
2019-03-21T08:33:53.581Z,1.57
2019-03-21T08:36:24.697Z,2.57
2019-03-21T08:38:55.716Z,1.50
2019-03-21T08:41:26.835Z,1.90
2019-03-21T08:43:57.983Z,1.53
2019-03-21T08:46:29.080Z,1.83
2019-03-21T08:49:00.115Z,1.53
2019-03-21T08:51:31.204Z,2.30
2019-03-21T08:54:02.262Z,2.03
2019-03-21T08:56:33.310Z,2.80
2019-03-21T08:59:04.511Z,2.63
2019-03-21T09:01:35.580Z,2.10
2019-03-21T09:04:06.673Z,2.60
2019-03-21T09:06:37.789Z,2.17
2019-03-21T09:09:10.258Z,1.70
2019-03-21T09:11:41.379Z,1.80
2019-03-21T09:14:12.480Z,1.80
2019-03-21T09:16:44.617Z,1.70
2019-03-21T09:19:15.663Z,1.50
2019-03-21T09:21:46.672Z,1.27
2019-03-21T09:24:17.851Z,1.20
2019-03-21T09:26:48.920Z,1.00
2019-03-21T09:29:19.999Z,1.10
2019-03-21T09:31:51.097Z,1.10
2019-03-21T09:34:22.220Z,1.13
2019-03-21T09:36:53.275Z,1.30
2019-03-21T09:39:24.299Z,1.20
2019-03-21T09:41:55.402Z,1.13
2019-03-21T09:44:26.268Z,1.10
2019-03-21T09:46:57.324Z,0.73
2019-03-21T09:49:28.389Z,1.20
2019-03-21T09:51:59.528Z,1.50
2019-03-21T09:54:30.614Z,1.33
2019-03-21T09:57:01.667Z,1.20
2019-03-21T09:59:32.857Z,1.07
2019-03-21T10:02:03.980Z,1.90
2019-03-21T10:04:35.132Z,1.50
2019-03-21T10:07:06.236Z,0.73
2019-03-21T10:09:37.384Z,0.80
2019-03-21T10:12:08.493Z,0.60
2019-03-21T10:14:41.231Z,0.60
2019-03-21T10:17:12.360Z,0.70
2019-03-21T10:19:43.483Z,0.80
2019-03-21T10:22:14.643Z,0.97
2019-03-21T10:24:45.792Z,1.20
2019-03-21T10:27:16.910Z,1.13
2019-03-21T10:29:48.050Z,1.07
2019-03-21T10:32:19.267Z,1.53
2019-03-21T10:34:50.455Z,1.83
2019-03-21T10:37:21.548Z,2.57
2019-03-21T10:39:52.568Z,2.07
2019-03-21T10:42:24.612Z,1.80
2019-03-21T10:44:55.736Z,1.30
2019-03-21T10:47:26.833Z,1.30
2019-03-21T10:49:57.953Z,1.00
2019-03-21T10:52:29.006Z,1.10
2019-03-21T10:55:00.346Z,1.13
2019-03-21T10:57:31.545Z,1.30
2019-03-21T11:00:02.634Z,1.17
2019-03-21T11:02:33.840Z,0.90
2019-03-21T11:05:04.872Z,0.90
2019-03-21T11:07:36.061Z,1.00
2019-03-21T11:10:07.570Z,1.20
2019-03-21T11:12:38.693Z,0.97
2019-03-21T11:15:09.816Z,1.10
2019-03-21T11:17:40.923Z,0.87
2019-03-21T11:20:14.460Z,1.10
2019-03-21T11:25:14.085Z,0.93
2019-03-21T11:27:45.382Z,0.90
2019-03-21T11:30:19.604Z,1.03
2019-03-21T11:32:51.141Z,1.20
2019-03-21T11:35:22.607Z,1.67
2019-03-21T11:37:53.920Z,1.90
2019-03-21T11:40:25.109Z,1.50
2019-03-21T11:42:56.346Z,1.17
2019-03-21T11:45:27.574Z,1.17
2019-03-21T11:47:59.991Z,1.40
2019-03-21T11:50:31.376Z,1.17
2019-03-21T11:53:02.770Z,1.30
2019-03-21T11:55:34.072Z,1.70
2019-03-21T11:58:05.444Z,1.90
2019-03-21T12:00:44.183Z,2.00
2019-03-21T12:03:10.102Z,1.93
2019-03-21T12:05:41.431Z,1.70
2019-03-21T12:08:12.635Z,1.60
2019-03-21T12:10:44.031Z,1.47
2019-03-21T12:13:16.495Z,1.47
2019-03-21T12:15:47.561Z,1.57
2019-03-21T12:18:18.804Z,1.90
2019-03-21T12:20:49.956Z,1.50
2019-03-21T12:23:21.405Z,1.40
2019-03-21T12:25:52.647Z,1.50
2019-03-21T12:28:23.912Z,1.60
2019-03-21T12:30:55.417Z,1.70
2019-03-21T12:36:09.722Z,1.97
2019-03-21T12:38:40.896Z,1.87
2019-03-21T12:41:12.295Z,2.03
2019-03-21T12:43:43.712Z,1.77
2019-03-21T12:46:15.193Z,1.40
2019-03-21T12:48:46.468Z,1.63
2019-03-21T12:51:17.741Z,1.90
2019-03-21T12:53:49.026Z,1.77
2019-03-21T12:56:20.505Z,1.87
2019-03-21T12:58:52.029Z,1.87
2019-03-21T13:01:23.448Z,2.17
2019-03-21T13:03:56.077Z,1.73
2019-03-21T13:06:27.257Z,2.17
2019-03-21T13:08:58.538Z,2.10
2019-03-21T13:11:29.661Z,2.57
2019-03-21T13:14:01.223Z,2.43
2019-03-21T13:16:32.724Z,2.50
2019-03-21T13:19:03.831Z,2.67
2019-03-21T13:21:36.683Z,2.37
2019-03-21T13:24:07.891Z,2.50
2019-03-21T13:26:38.960Z,2.87
2019-03-21T13:29:10.151Z,3.70
2019-03-21T13:31:41.456Z,3.60
2019-03-21T13:34:13.593Z,3.50
2019-03-21T13:36:45.019Z,3.43
2019-03-21T13:39:16.449Z,2.40
2019-03-21T13:44:37.318Z,2.87
2019-03-21T13:47:08.520Z,2.87
2019-03-21T13:49:39.643Z,3.20
2019-03-21T13:52:11.908Z,3.17
2019-03-21T13:54:43.100Z,3.00
2019-03-21T13:57:14.223Z,3.00
2019-03-21T13:59:45.617Z,3.13
2019-03-21T14:02:18.046Z,3.10
2019-03-21T14:04:49.197Z,2.87
2019-03-21T14:07:20.406Z,2.97
2019-03-21T14:09:51.788Z,2.90
2019-03-21T14:12:23.219Z,2.60
2019-03-21T14:14:54.544Z,2.40
2019-03-21T14:17:25.964Z,2.57
2019-03-21T14:22:47.220Z,2.90
2019-03-21T14:25:18.612Z,2.77
2019-03-21T14:27:49.813Z,2.30
2019-03-21T14:30:21.107Z,3.20
2019-03-21T14:32:52.533Z,2.90
2019-03-21T14:35:23.984Z,2.67
2019-03-21T14:37:55.412Z,2.50
2019-03-21T14:40:26.697Z,3.00
2019-03-21T14:42:57.723Z,3.00
2019-03-21T14:45:28.960Z,3.13
2019-03-21T14:48:00.523Z,2.90
2019-03-21T14:50:31.711Z,3.10
2019-03-21T14:53:03.111Z,3.00
2019-03-21T14:55:34.366Z,3.00
2019-03-21T14:58:05.883Z,3.30
2019-03-21T15:00:37.145Z,2.93
2019-03-21T15:03:08.575Z,2.80
2019-03-21T15:05:39.875Z,2.93
2019-03-21T15:08:12.300Z,2.97
2019-03-21T15:10:43.580Z,2.80
2019-03-21T15:13:14.734Z,2.73
2019-03-21T15:15:56.454Z,3.07
2019-03-21T15:18:27.670Z,2.97
2019-03-21T15:20:58.873Z,2.40
2019-03-21T15:23:40.248Z,2.70
2019-03-21T15:26:03.212Z,2.73
2019-03-21T15:28:34.656Z,5.73
2019-03-21T15:31:06.032Z,6.13
2019-03-21T15:33:37.579Z,2.90
2019-03-21T15:36:08.844Z,2.93
2019-03-21T15:38:39.971Z,2.77
2019-03-21T15:41:11.323Z,2.83
2019-03-21T15:43:43.071Z,2.43
2019-03-21T15:46:14.546Z,2.40
2019-03-21T15:51:34.711Z,2.80
2019-03-21T15:54:06.171Z,2.83
2019-03-21T15:56:37.450Z,2.60
2019-03-21T15:59:08.772Z,3.43
2019-03-21T16:01:40.009Z,3.13
2019-03-21T16:04:11.353Z,3.10
2019-03-21T16:06:42.759Z,3.20
2019-03-21T16:09:13.959Z,2.97
2019-03-21T16:11:45.109Z,3.10
2019-03-21T16:14:16.558Z,3.43
2019-03-21T16:16:47.957Z,44.47
2019-03-21T16:19:19.355Z,3.73
2019-03-21T16:24:26.450Z,4.37
2019-03-21T16:27:09.079Z,4.07
2019-03-21T16:29:40.227Z,4.33
2019-03-21T16:32:11.647Z,4.30
2019-03-21T16:34:42.893Z,5.00
2019-03-21T16:37:14.276Z,7.90
2019-03-21T16:39:45.559Z,14.40
2019-03-21T16:42:17.052Z,4.23
2019-03-21T16:44:48.288Z,4.10
2019-03-21T16:47:19.620Z,4.40
2019-03-21T16:49:50.979Z,4.33
2019-03-21T16:52:22.647Z,4.77
2019-03-21T16:54:53.849Z,5.03
2019-03-21T16:57:25.125Z,5.40
2019-03-21T16:59:56.265Z,4.73
2019-03-21T17:02:27.595Z,4.80
2019-03-21T17:04:59.112Z,4.97
2019-03-21T17:07:30.284Z,4.73
2019-03-21T17:10:01.523Z,5.37
2019-03-21T17:12:33.029Z,5.07
2019-03-21T17:15:04.434Z,5.43
2019-03-21T17:17:35.906Z,5.57
2019-03-21T17:20:07.319Z,4.90
2019-03-21T17:22:38.521Z,4.90
2019-03-21T17:25:14.547Z,4.70
2019-03-21T17:27:45.826Z,4.27
2019-03-21T17:30:17.899Z,4.27
2019-03-21T17:32:49.232Z,4.20
2019-03-21T17:35:20.635Z,4.07
2019-03-21T17:37:52.217Z,3.90
2019-03-21T17:40:46.266Z,5.87
2019-03-21T17:43:18.772Z,4.90
2019-03-21T17:45:50.198Z,4.00
2019-03-21T17:48:21.505Z,3.80
2019-03-21T17:50:52.740Z,3.73
2019-03-21T17:53:25.156Z,4.60
2019-03-21T17:55:56.420Z,5.87
2019-03-21T17:58:28.857Z,6.77
2019-03-21T18:01:00.365Z,5.90
2019-03-21T18:03:31.784Z,6.30
2019-03-21T18:06:05.751Z,7.83
2019-03-21T18:08:37.185Z,7.00
2019-03-21T18:11:08.477Z,7.10
2019-03-21T18:13:39.573Z,6.60
2019-03-21T18:16:10.867Z,6.13
2019-03-21T18:18:42.290Z,6.77
2019-03-21T18:21:13.930Z,5.70
2019-03-21T18:23:45.251Z,6.77
2019-03-21T18:26:16.295Z,6.20
2019-03-21T18:28:47.768Z,6.73
2019-03-21T18:31:19.261Z,7.30
2019-03-21T18:33:50.593Z,7.13
2019-03-21T18:36:22.364Z,6.77
2019-03-21T18:38:59.486Z,7.30
2019-03-21T18:41:28.279Z,7.00
2019-03-21T18:43:59.495Z,7.30
2019-03-21T18:46:31.696Z,6.63
2019-03-21T18:49:03.996Z,7.10
2019-03-21T18:51:35.670Z,8.13
2019-03-21T18:54:07.039Z,7.40
2019-03-21T18:56:38.351Z,8.00
2019-03-21T18:59:09.623Z,6.90
2019-03-21T19:01:41.013Z,6.53
2019-03-21T19:04:12.247Z,7.40
2019-03-21T19:09:32.464Z,7.83
2019-03-21T19:12:03.767Z,8.07
2019-03-21T19:14:35.240Z,7.50
2019-03-21T19:17:06.717Z,8.40
2019-03-21T19:19:38.136Z,8.67
2019-03-21T19:22:09.610Z,9.93
2019-03-21T19:24:41.076Z,11.17
2019-03-21T19:27:12.451Z,14.10
2019-03-21T19:29:43.923Z,10.40
2019-03-21T19:32:15.468Z,9.53
2019-03-21T19:34:46.831Z,10.03
2019-03-21T19:37:18.293Z,12.47
2019-03-21T19:39:49.568Z,13.03
2019-03-21T19:42:20.979Z,15.33
2019-03-21T19:44:52.452Z,11.27
2019-03-21T19:47:29.855Z,9.57
2019-03-21T19:49:57.696Z,9.50
2019-03-21T19:52:28.847Z,10.23
2019-03-21T19:55:00.241Z,10.60
2019-03-21T19:57:31.698Z,11.13
2019-03-21T20:00:03.055Z,11.73
2019-03-21T20:02:34.573Z,10.63
2019-03-21T20:05:06.516Z,11.20
2019-03-21T20:07:38.183Z,10.13
2019-03-21T20:10:10.080Z,10.80
2019-03-21T20:12:41.380Z,10.20
2019-03-21T20:15:13.495Z,10.00
2019-03-21T20:17:45.726Z,11.67
2019-03-21T20:20:17.193Z,9.90
2019-03-21T20:22:50.551Z,9.03
2019-03-21T20:25:21.920Z,9.43
2019-03-21T20:27:53.681Z,10.63
2019-03-21T20:30:25.358Z,9.57
2019-03-21T20:32:56.990Z,8.63
2019-03-21T20:35:28.771Z,8.90
2019-03-21T20:38:00.875Z,9.17
2019-03-21T20:40:33.134Z,8.73
2019-03-21T20:43:04.642Z,8.70
2019-03-21T20:45:36.156Z,7.10
2019-03-21T20:48:07.456Z,8.07
2019-03-21T20:50:38.540Z,8.27
2019-03-21T20:53:10.092Z,6.20
2019-03-21T20:55:41.429Z,6.27
2019-03-21T20:58:13.112Z,6.27
2019-03-21T21:00:44.553Z,7.03
2019-03-21T21:03:15.967Z,6.23
2019-03-21T21:05:47.610Z,5.93
2019-03-21T21:08:18.996Z,7.07
2019-03-21T21:10:50.235Z,7.93
2019-03-21T21:13:21.788Z,7.17
2019-03-21T21:15:53.295Z,6.43
2019-03-21T21:18:24.757Z,7.10
2019-03-21T21:20:55.996Z,6.90
2019-03-21T21:23:27.991Z,7.53
2019-03-21T21:28:48.507Z,7.40
2019-03-21T21:31:19.775Z,7.63
2019-03-21T21:33:51.350Z,6.97
2019-03-21T21:36:22.748Z,6.87
2019-03-21T21:38:54.041Z,6.90
2019-03-21T21:41:25.258Z,6.77
2019-03-21T21:43:57.043Z,6.80
2019-03-21T21:46:28.470Z,6.33
2019-03-21T21:49:00.162Z,7.00
2019-03-21T21:51:31.512Z,7.27
2019-03-21T21:54:02.870Z,7.47
2019-03-21T21:56:34.665Z,7.80
2019-03-21T21:59:05.878Z,7.27
2019-03-21T22:01:37.331Z,6.30
2019-03-21T22:04:08.612Z,8.20
2019-03-21T22:06:40.476Z,8.10
2019-03-21T22:09:11.711Z,7.20
2019-03-21T22:11:43.100Z,7.00
2019-03-21T22:14:15.709Z,6.90
2019-03-21T22:16:46.953Z,6.80
2019-03-21T22:19:18.396Z,7.13
2019-03-21T22:21:49.773Z,6.97
2019-03-21T22:24:20.995Z,7.00
2019-03-21T22:26:52.386Z,6.53
2019-03-21T22:29:23.716Z,6.43
2019-03-21T22:31:55.201Z,6.20
2019-03-21T22:34:26.721Z,6.40
2019-03-21T22:36:57.924Z,6.40
2019-03-21T22:39:29.435Z,6.63
2019-03-21T22:42:00.827Z,6.63
2019-03-21T22:44:32.301Z,6.77
2019-03-21T22:47:03.516Z,6.80
2019-03-21T22:49:35.004Z,6.10
2019-03-21T22:52:06.444Z,6.70
2019-03-21T22:54:37.810Z,6.00
2019-03-21T22:57:09.341Z,6.40
2019-03-21T22:59:40.461Z,7.10
2019-03-21T23:04:54.168Z,6.97
2019-03-21T23:07:25.371Z,6.43
2019-03-21T23:09:56.753Z,6.23
2019-03-21T23:12:29.024Z,6.80
2019-03-21T23:15:00.455Z,7.27
2019-03-21T23:17:32.028Z,6.97
2019-03-21T23:20:03.516Z,6.43
2019-03-21T23:22:35.120Z,6.47
2019-03-21T23:25:07.837Z,6.20
2019-03-21T23:27:39.253Z,6.10
2019-03-21T23:30:11.376Z,6.37
2019-03-21T23:32:42.876Z,5.90
2019-03-21T23:35:14.572Z,5.77
2019-03-21T23:37:49.167Z,7.10
2019-03-21T23:40:21.191Z,6.40
2019-03-21T23:42:52.467Z,6.20
2019-03-21T23:45:24.223Z,5.90
2019-03-21T23:47:55.739Z,6.27
2019-03-21T23:50:27.342Z,5.93
2019-03-21T23:52:58.596Z,5.73
2019-03-21T23:55:30.238Z,5.80
2019-03-21T23:58:01.640Z,6.50
